sensor_id;sensor_type;location;lat;lon;timestamp;P1;durP1;ratioP1;P2;durP2;ratioP2
33162;SDS011;29282;45.656;11.302;2023-04-24T00:01:38;15.32;;;5.72;;
33162;SDS011;29282;45.656;11.302;2023-04-24T00:04:04;14.52;;;5.82;;
33162;SDS011;29282;45.656;11.302;2023-04-24T00:06:32;13.93;;;6.22;;
33162;SDS011;29282;45.656;11.302;2023-04-24T00:09:02;10.73;;;5.93;;
33162;SDS011;29282;45.656;11.302;2023-04-24T00:11:28;18.00;;;6.85;;
33162;SDS011;29282;45.656;11.302;2023-04-24T00:13:54;19.15;;;6.57;;
33162;SDS011;29282;45.656;11.302;2023-04-24T00:16:21;16.92;;;6.65;;
33162;SDS011;29282;45.656;11.302;2023-04-24T00:18:47;16.48;;;6.13;;
33162;SDS011;29282;45.656;11.302;2023-04-24T00:21:13;16.83;;;6.90;;
33162;SDS011;29282;45.656;11.302;2023-04-24T00:23:42;14.18;;;7.00;;
33162;SDS011;29282;45.656;11.302;2023-04-24T00:26:08;13.07;;;5.88;;
33162;SDS011;29282;45.656;11.302;2023-04-24T00:28:34;15.10;;;6.38;;
33162;SDS011;29282;45.656;11.302;2023-04-24T00:31:00;16.88;;;6.30;;
33162;SDS011;29282;45.656;11.302;2023-04-24T00:33:25;16.30;;;6.40;;
33162;SDS011;29282;45.656;11.302;2023-04-24T00:35:51;13.30;;;6.32;;
33162;SDS011;29282;45.656;11.302;2023-04-24T00:38:16;12.90;;;6.28;;
33162;SDS011;29282;45.656;11.302;2023-04-24T00:40:42;12.52;;;5.95;;
33162;SDS011;29282;45.656;11.302;2023-04-24T00:43:07;10.13;;;5.43;;
33162;SDS011;29282;45.656;11.302;2023-04-24T00:45:33;11.43;;;6.03;;
33162;SDS011;29282;45.656;11.302;2023-04-24T00:47:58;11.50;;;6.30;;
33162;SDS011;29282;45.656;11.302;2023-04-24T00:50:25;11.07;;;5.90;;
33162;SDS011;29282;45.656;11.302;2023-04-24T00:52:51;11.73;;;5.53;;
33162;SDS011;29282;45.656;11.302;2023-04-24T00:55:17;10.88;;;5.20;;
33162;SDS011;29282;45.656;11.302;2023-04-24T00:57:43;12.35;;;6.07;;
33162;SDS011;29282;45.656;11.302;2023-04-24T01:00:10;13.50;;;5.80;;
33162;SDS011;29282;45.656;11.302;2023-04-24T01:02:40;11.40;;;6.03;;
33162;SDS011;29282;45.656;11.302;2023-04-24T01:05:10;11.07;;;5.78;;
33162;SDS011;29282;45.656;11.302;2023-04-24T01:07:36;14.30;;;6.13;;
33162;SDS011;29282;45.656;11.302;2023-04-24T01:10:03;12.77;;;5.60;;
33162;SDS011;29282;45.656;11.302;2023-04-24T01:12:28;12.20;;;5.80;;
33162;SDS011;29282;45.656;11.302;2023-04-24T01:14:54;10.25;;;5.30;;
33162;SDS011;29282;45.656;11.302;2023-04-24T01:17:21;13.10;;;6.07;;
33162;SDS011;29282;45.656;11.302;2023-04-24T01:19:47;14.68;;;5.85;;
33162;SDS011;29282;45.656;11.302;2023-04-24T01:22:13;9.57;;;5.47;;
33162;SDS011;29282;45.656;11.302;2023-04-24T01:24:40;11.15;;;5.90;;
33162;SDS011;29282;45.656;11.302;2023-04-24T01:27:06;11.25;;;5.63;;
33162;SDS011;29282;45.656;11.302;2023-04-24T01:29:33;12.43;;;5.88;;
33162;SDS011;29282;45.656;11.302;2023-04-24T01:31:59;11.60;;;5.78;;
33162;SDS011;29282;45.656;11.302;2023-04-24T01:34:25;11.77;;;5.45;;
33162;SDS011;29282;45.656;11.302;2023-04-24T01:36:51;9.60;;;5.07;;
33162;SDS011;29282;45.656;11.302;2023-04-24T01:39:16;10.65;;;5.43;;
33162;SDS011;29282;45.656;11.302;2023-04-24T01:41:42;11.38;;;5.65;;
33162;SDS011;29282;45.656;11.302;2023-04-24T01:44:07;12.80;;;5.60;;
33162;SDS011;29282;45.656;11.302;2023-04-24T01:46:33;9.70;;;5.95;;
33162;SDS011;29282;45.656;11.302;2023-04-24T01:49:00;9.00;;;5.70;;
33162;SDS011;29282;45.656;11.302;2023-04-24T01:51:26;10.45;;;5.75;;
33162;SDS011;29282;45.656;11.302;2023-04-24T01:53:52;8.80;;;5.72;;
33162;SDS011;29282;45.656;11.302;2023-04-24T01:56:19;8.95;;;5.35;;
33162;SDS011;29282;45.656;11.302;2023-04-24T01:58:46;11.80;;;5.45;;
33162;SDS011;29282;45.656;11.302;2023-04-24T02:01:19;10.20;;;5.72;;
33162;SDS011;29282;45.656;11.302;2023-04-24T02:03:45;10.48;;;5.97;;
33162;SDS011;29282;45.656;11.302;2023-04-24T02:06:11;11.27;;;5.28;;
33162;SDS011;29282;45.656;11.302;2023-04-24T02:08:37;10.20;;;5.32;;
33162;SDS011;29282;45.656;11.302;2023-04-24T02:11:02;9.82;;;5.47;;
33162;SDS011;29282;45.656;11.302;2023-04-24T02:13:28;11.35;;;5.18;;
33162;SDS011;29282;45.656;11.302;2023-04-24T02:15:53;11.52;;;5.47;;
33162;SDS011;29282;45.656;11.302;2023-04-24T02:18:19;11.45;;;5.50;;
33162;SDS011;29282;45.656;11.302;2023-04-24T02:20:45;10.30;;;5.13;;
33162;SDS011;29282;45.656;11.302;2023-04-24T02:23:10;9.10;;;4.97;;
33162;SDS011;29282;45.656;11.302;2023-04-24T02:25:35;10.13;;;5.03;;
33162;SDS011;29282;45.656;11.302;2023-04-24T02:28:01;9.27;;;5.97;;
33162;SDS011;29282;45.656;11.302;2023-04-24T02:30:27;8.75;;;5.15;;
33162;SDS011;29282;45.656;11.302;2023-04-24T02:32:52;10.40;;;5.78;;
33162;SDS011;29282;45.656;11.302;2023-04-24T02:35:18;12.50;;;5.53;;
33162;SDS011;29282;45.656;11.302;2023-04-24T02:37:44;10.48;;;5.10;;
33162;SDS011;29282;45.656;11.302;2023-04-24T02:40:09;7.15;;;5.43;;
33162;SDS011;29282;45.656;11.302;2023-04-24T02:42:35;10.00;;;5.70;;
33162;SDS011;29282;45.656;11.302;2023-04-24T02:45:00;8.90;;;4.85;;
33162;SDS011;29282;45.656;11.302;2023-04-24T02:47:26;8.10;;;5.50;;
33162;SDS011;29282;45.656;11.302;2023-04-24T02:49:51;10.02;;;4.82;;
33162;SDS011;29282;45.656;11.302;2023-04-24T02:52:17;8.75;;;5.22;;
33162;SDS011;29282;45.656;11.302;2023-04-24T02:54:42;8.68;;;5.22;;
33162;SDS011;29282;45.656;11.302;2023-04-24T02:57:08;8.80;;;5.43;;
33162;SDS011;29282;45.656;11.302;2023-04-24T02:59:33;8.05;;;4.97;;
33162;SDS011;29282;45.656;11.302;2023-04-24T03:01:59;10.25;;;5.60;;
33162;SDS011;29282;45.656;11.302;2023-04-24T03:04:25;8.60;;;5.30;;
33162;SDS011;29282;45.656;11.302;2023-04-24T03:06:51;6.93;;;5.45;;
33162;SDS011;29282;45.656;11.302;2023-04-24T03:09:18;6.90;;;5.10;;
33162;SDS011;29282;45.656;11.302;2023-04-24T03:11:43;6.78;;;5.03;;
33162;SDS011;29282;45.656;11.302;2023-04-24T03:14:09;8.20;;;4.93;;
33162;SDS011;29282;45.656;11.302;2023-04-24T03:16:34;8.65;;;5.22;;
33162;SDS011;29282;45.656;11.302;2023-04-24T03:19:00;6.25;;;4.72;;
33162;SDS011;29282;45.656;11.302;2023-04-24T03:21:26;7.45;;;4.95;;
33162;SDS011;29282;45.656;11.302;2023-04-24T03:23:51;11.93;;;5.75;;
33162;SDS011;29282;45.656;11.302;2023-04-24T03:26:17;6.05;;;4.85;;
33162;SDS011;29282;45.656;11.302;2023-04-24T03:28:42;9.20;;;5.35;;
33162;SDS011;29282;45.656;11.302;2023-04-24T03:31:08;7.75;;;4.88;;
33162;SDS011;29282;45.656;11.302;2023-04-24T03:33:33;7.35;;;5.00;;
33162;SDS011;29282;45.656;11.302;2023-04-24T03:35:59;5.82;;;4.60;;
33162;SDS011;29282;45.656;11.302;2023-04-24T03:38:24;7.70;;;5.60;;
33162;SDS011;29282;45.656;11.302;2023-04-24T03:40:50;7.80;;;5.15;;
33162;SDS011;29282;45.656;11.302;2023-04-24T03:43:15;7.35;;;5.07;;
33162;SDS011;29282;45.656;11.302;2023-04-24T03:45:41;6.82;;;5.28;;
33162;SDS011;29282;45.656;11.302;2023-04-24T03:48:06;7.45;;;4.82;;
33162;SDS011;29282;45.656;11.302;2023-04-24T03:50:32;8.63;;;5.28;;
33162;SDS011;29282;45.656;11.302;2023-04-24T03:52:58;10.07;;;5.47;;
33162;SDS011;29282;45.656;11.302;2023-04-24T03:55:23;7.07;;;5.00;;
33162;SDS011;29282;45.656;11.302;2023-04-24T03:57:49;8.73;;;4.93;;
33162;SDS011;29282;45.656;11.302;2023-04-24T04:00:14;8.20;;;5.40;;
33162;SDS011;29282;45.656;11.302;2023-04-24T04:02:40;9.30;;;5.25;;
33162;SDS011;29282;45.656;11.302;2023-04-24T04:05:06;6.22;;;4.95;;
33162;SDS011;29282;45.656;11.302;2023-04-24T04:07:33;7.90;;;5.40;;
33162;SDS011;29282;45.656;11.302;2023-04-24T04:09:58;8.00;;;4.97;;
33162;SDS011;29282;45.656;11.302;2023-04-24T04:12:24;7.88;;;4.93;;
33162;SDS011;29282;45.656;11.302;2023-04-24T04:14:49;7.82;;;5.13;;
33162;SDS011;29282;45.656;11.302;2023-04-24T04:17:15;6.25;;;4.90;;
33162;SDS011;29282;45.656;11.302;2023-04-24T04:19:40;6.22;;;4.68;;
33162;SDS011;29282;45.656;11.302;2023-04-24T04:22:07;7.90;;;4.85;;
33162;SDS011;29282;45.656;11.302;2023-04-24T04:24:33;8.18;;;4.93;;
33162;SDS011;29282;45.656;11.302;2023-04-24T04:27:03;6.78;;;4.90;;
33162;SDS011;29282;45.656;11.302;2023-04-24T04:29:30;7.50;;;5.50;;
33162;SDS011;29282;45.656;11.302;2023-04-24T04:31:56;9.68;;;5.00;;
33162;SDS011;29282;45.656;11.302;2023-04-24T04:34:22;8.63;;;5.05;;
33162;SDS011;29282;45.656;11.302;2023-04-24T04:36:48;8.88;;;5.20;;
33162;SDS011;29282;45.656;11.302;2023-04-24T04:39:13;12.18;;;5.22;;
33162;SDS011;29282;45.656;11.302;2023-04-24T04:41:43;7.40;;;4.50;;
33162;SDS011;29282;45.656;11.302;2023-04-24T04:44:09;8.27;;;4.70;;
33162;SDS011;29282;45.656;11.302;2023-04-24T04:46:34;6.68;;;5.05;;
33162;SDS011;29282;45.656;11.302;2023-04-24T04:49:02;5.72;;;4.05;;
33162;SDS011;29282;45.656;11.302;2023-04-24T04:51:28;9.15;;;4.82;;
33162;SDS011;29282;45.656;11.302;2023-04-24T04:53:53;6.95;;;4.43;;
33162;SDS011;29282;45.656;11.302;2023-04-24T04:56:19;6.45;;;4.75;;
33162;SDS011;29282;45.656;11.302;2023-04-24T04:58:44;6.28;;;4.57;;
33162;SDS011;29282;45.656;11.302;2023-04-24T05:01:10;6.45;;;5.13;;
33162;SDS011;29282;45.656;11.302;2023-04-24T05:03:35;6.25;;;4.40;;
33162;SDS011;29282;45.656;11.302;2023-04-24T05:06:01;9.95;;;5.10;;
33162;SDS011;29282;45.656;11.302;2023-04-24T05:08:27;5.95;;;4.80;;
33162;SDS011;29282;45.656;11.302;2023-04-24T05:10:53;8.02;;;4.15;;
33162;SDS011;29282;45.656;11.302;2023-04-24T05:13:19;7.63;;;4.97;;
33162;SDS011;29282;45.656;11.302;2023-04-24T05:15:45;7.35;;;4.65;;
33162;SDS011;29282;45.656;11.302;2023-04-24T05:18:10;6.57;;;4.38;;
33162;SDS011;29282;45.656;11.302;2023-04-24T05:20:36;6.10;;;4.97;;
33162;SDS011;29282;45.656;11.302;2023-04-24T05:23:02;7.20;;;4.85;;
33162;SDS011;29282;45.656;11.302;2023-04-24T05:25:27;6.03;;;4.45;;
33162;SDS011;29282;45.656;11.302;2023-04-24T05:27:53;7.97;;;4.85;;
33162;SDS011;29282;45.656;11.302;2023-04-24T05:30:18;5.72;;;4.53;;
33162;SDS011;29282;45.656;11.302;2023-04-24T05:32:44;7.10;;;5.10;;
33162;SDS011;29282;45.656;11.302;2023-04-24T05:35:10;7.30;;;4.55;;
33162;SDS011;29282;45.656;11.302;2023-04-24T05:37:35;8.70;;;4.70;;
33162;SDS011;29282;45.656;11.302;2023-04-24T05:40:01;5.95;;;4.43;;
33162;SDS011;29282;45.656;11.302;2023-04-24T05:42:27;6.22;;;4.72;;
33162;SDS011;29282;45.656;11.302;2023-04-24T05:44:52;5.22;;;4.50;;
33162;SDS011;29282;45.656;11.302;2023-04-24T05:47:19;7.25;;;4.70;;
33162;SDS011;29282;45.656;11.302;2023-04-24T05:49:46;5.95;;;4.60;;
33162;SDS011;29282;45.656;11.302;2023-04-24T05:52:12;6.80;;;4.47;;
33162;SDS011;29282;45.656;11.302;2023-04-24T05:54:37;6.10;;;4.43;;
33162;SDS011;29282;45.656;11.302;2023-04-24T05:57:03;7.15;;;4.88;;
33162;SDS011;29282;45.656;11.302;2023-04-24T05:59:32;8.73;;;4.82;;
33162;SDS011;29282;45.656;11.302;2023-04-24T06:01:58;6.55;;;4.35;;
33162;SDS011;29282;45.656;11.302;2023-04-24T06:04:24;5.82;;;4.38;;
33162;SDS011;29282;45.656;11.302;2023-04-24T06:06:49;6.28;;;4.45;;
33162;SDS011;29282;45.656;11.302;2023-04-24T06:09:16;5.18;;;4.40;;
33162;SDS011;29282;45.656;11.302;2023-04-24T06:11:42;6.50;;;4.68;;
33162;SDS011;29282;45.656;11.302;2023-04-24T06:14:08;5.60;;;4.60;;
33162;SDS011;29282;45.656;11.302;2023-04-24T06:16:33;5.15;;;4.35;;
33162;SDS011;29282;45.656;11.302;2023-04-24T06:18:59;5.57;;;4.40;;
33162;SDS011;29282;45.656;11.302;2023-04-24T06:21:24;7.20;;;5.18;;
33162;SDS011;29282;45.656;11.302;2023-04-24T06:23:50;6.03;;;4.45;;
33162;SDS011;29282;45.656;11.302;2023-04-24T06:26:16;5.80;;;4.28;;
33162;SDS011;29282;45.656;11.302;2023-04-24T06:28:41;5.35;;;4.25;;
33162;SDS011;29282;45.656;11.302;2023-04-24T06:31:07;5.70;;;4.65;;
33162;SDS011;29282;45.656;11.302;2023-04-24T06:33:32;6.57;;;4.75;;
33162;SDS011;29282;45.656;11.302;2023-04-24T06:35:58;4.93;;;4.03;;
33162;SDS011;29282;45.656;11.302;2023-04-24T06:38:23;5.03;;;4.20;;
33162;SDS011;29282;45.656;11.302;2023-04-24T06:40:49;5.70;;;4.82;;
33162;SDS011;29282;45.656;11.302;2023-04-24T06:43:14;5.65;;;4.45;;
33162;SDS011;29282;45.656;11.302;2023-04-24T06:45:40;6.05;;;4.22;;
33162;SDS011;29282;45.656;11.302;2023-04-24T06:48:05;5.47;;;4.50;;
33162;SDS011;29282;45.656;11.302;2023-04-24T06:50:31;4.95;;;4.45;;
33162;SDS011;29282;45.656;11.302;2023-04-24T06:52:56;6.40;;;4.25;;
33162;SDS011;29282;45.656;11.302;2023-04-24T06:55:22;5.40;;;4.20;;
33162;SDS011;29282;45.656;11.302;2023-04-24T06:57:47;5.82;;;4.38;;
33162;SDS011;29282;45.656;11.302;2023-04-24T07:00:13;5.90;;;4.00;;
33162;SDS011;29282;45.656;11.302;2023-04-24T07:02:39;6.35;;;4.43;;
33162;SDS011;29282;45.656;11.302;2023-04-24T07:05:04;6.38;;;4.45;;
33162;SDS011;29282;45.656;11.302;2023-04-24T07:07:30;4.40;;;4.00;;
33162;SDS011;29282;45.656;11.302;2023-04-24T07:09:56;7.45;;;4.43;;
33162;SDS011;29282;45.656;11.302;2023-04-24T07:12:22;6.68;;;4.60;;
33162;SDS011;29282;45.656;11.302;2023-04-24T07:14:48;10.00;;;3.88;;
33162;SDS011;29282;45.656;11.302;2023-04-24T07:17:13;7.55;;;3.83;;
33162;SDS011;29282;45.656;11.302;2023-04-24T07:19:39;6.70;;;3.20;;
33162;SDS011;29282;45.656;11.302;2023-04-24T07:22:05;10.00;;;3.15;;
33162;SDS011;29282;45.656;11.302;2023-04-24T07:24:31;5.13;;;2.95;;
33162;SDS011;29282;45.656;11.302;2023-04-24T07:26:59;3.58;;;2.83;;
33162;SDS011;29282;45.656;11.302;2023-04-24T07:29:26;4.00;;;2.80;;
33162;SDS011;29282;45.656;11.302;2023-04-24T07:31:52;2.97;;;2.67;;
33162;SDS011;29282;45.656;11.302;2023-04-24T07:34:19;7.43;;;3.03;;
33162;SDS011;29282;45.656;11.302;2023-04-24T07:36:45;3.83;;;2.72;;
33162;SDS011;29282;45.656;11.302;2023-04-24T07:39:11;2.63;;;2.40;;
33162;SDS011;29282;45.656;11.302;2023-04-24T07:41:36;4.28;;;2.75;;
33162;SDS011;29282;45.656;11.302;2023-04-24T07:44:02;3.17;;;2.50;;
33162;SDS011;29282;45.656;11.302;2023-04-24T07:46:27;3.72;;;2.70;;
33162;SDS011;29282;45.656;11.302;2023-04-24T07:48:54;4.18;;;2.45;;
33162;SDS011;29282;45.656;11.302;2023-04-24T07:51:20;5.45;;;2.45;;
33162;SDS011;29282;45.656;11.302;2023-04-24T07:53:46;5.55;;;2.10;;
33162;SDS011;29282;45.656;11.302;2023-04-24T07:56:11;3.40;;;2.10;;
33162;SDS011;29282;45.656;11.302;2023-04-24T07:58:37;4.65;;;2.60;;
33162;SDS011;29282;45.656;11.302;2023-04-24T08:01:02;6.82;;;2.45;;
33162;SDS011;29282;45.656;11.302;2023-04-24T08:03:28;13.20;;;2.80;;
33162;SDS011;29282;45.656;11.302;2023-04-24T08:05:53;14.23;;;2.80;;
33162;SDS011;29282;45.656;11.302;2023-04-24T08:08:21;9.80;;;3.03;;
33162;SDS011;29282;45.656;11.302;2023-04-24T08:10:47;9.02;;;3.33;;
33162;SDS011;29282;45.656;11.302;2023-04-24T08:13:13;7.57;;;2.80;;
33162;SDS011;29282;45.656;11.302;2023-04-24T08:15:38;3.05;;;2.45;;
33162;SDS011;29282;45.656;11.302;2023-04-24T08:18:04;5.80;;;2.80;;
33162;SDS011;29282;45.656;11.302;2023-04-24T08:20:29;7.28;;;3.08;;
33162;SDS011;29282;45.656;11.302;2023-04-24T08:22:55;3.63;;;2.55;;
33162;SDS011;29282;45.656;11.302;2023-04-24T08:25:21;6.68;;;2.90;;
33162;SDS011;29282;45.656;11.302;2023-04-24T08:27:48;7.45;;;2.60;;
33162;SDS011;29282;45.656;11.302;2023-04-24T08:30:13;5.35;;;2.45;;
33162;SDS011;29282;45.656;11.302;2023-04-24T08:32:39;11.13;;;2.80;;
33162;SDS011;29282;45.656;11.302;2023-04-24T08:35:05;8.68;;;2.95;;
33162;SDS011;29282;45.656;11.302;2023-04-24T08:37:31;5.78;;;2.53;;
33162;SDS011;29282;45.656;11.302;2023-04-24T08:39:56;4.82;;;2.55;;
33162;SDS011;29282;45.656;11.302;2023-04-24T08:42:21;3.50;;;2.30;;
33162;SDS011;29282;45.656;11.302;2023-04-24T08:44:48;4.85;;;2.58;;
33162;SDS011;29282;45.656;11.302;2023-04-24T08:47:14;5.05;;;2.42;;
33162;SDS011;29282;45.656;11.302;2023-04-24T08:49:40;7.22;;;2.38;;
33162;SDS011;29282;45.656;11.302;2023-04-24T08:52:06;4.20;;;2.50;;
33162;SDS011;29282;45.656;11.302;2023-04-24T08:54:35;4.53;;;2.40;;
33162;SDS011;29282;45.656;11.302;2023-04-24T08:57:00;4.72;;;2.55;;
33162;SDS011;29282;45.656;11.302;2023-04-24T08:59:28;22.90;;;2.53;;
33162;SDS011;29282;45.656;11.302;2023-04-24T09:01:55;9.10;;;2.80;;
33162;SDS011;29282;45.656;11.302;2023-04-24T09:04:21;4.30;;;2.30;;
33162;SDS011;29282;45.656;11.302;2023-04-24T09:06:49;3.88;;;2.63;;
33162;SDS011;29282;45.656;11.302;2023-04-24T09:09:16;7.13;;;2.65;;
33162;SDS011;29282;45.656;11.302;2023-04-24T09:11:43;6.32;;;2.70;;
33162;SDS011;29282;45.656;11.302;2023-04-24T09:14:09;4.68;;;2.60;;
33162;SDS011;29282;45.656;11.302;2023-04-24T09:16:35;7.03;;;2.65;;
33162;SDS011;29282;45.656;11.302;2023-04-24T09:19:01;9.23;;;2.90;;
33162;SDS011;29282;45.656;11.302;2023-04-24T09:21:31;8.43;;;2.75;;
33162;SDS011;29282;45.656;11.302;2023-04-24T09:23:58;6.50;;;2.33;;
33162;SDS011;29282;45.656;11.302;2023-04-24T09:26:25;6.55;;;2.65;;
33162;SDS011;29282;45.656;11.302;2023-04-24T09:28:54;6.97;;;2.70;;
33162;SDS011;29282;45.656;11.302;2023-04-24T09:31:19;5.43;;;2.38;;
33162;SDS011;29282;45.656;11.302;2023-04-24T09:34:20;8.52;;;2.72;;
33162;SDS011;29282;45.656;11.302;2023-04-24T09:36:39;7.00;;;2.50;;
33162;SDS011;29282;45.656;11.302;2023-04-24T09:39:10;10.75;;;3.45;;
33162;SDS011;29282;45.656;11.302;2023-04-24T09:41:43;14.48;;;3.58;;
33162;SDS011;29282;45.656;11.302;2023-04-24T09:44:13;18.70;;;3.40;;
33162;SDS011;29282;45.656;11.302;2023-04-24T09:46:40;11.25;;;3.38;;
33162;SDS011;29282;45.656;11.302;2023-04-24T09:49:12;15.60;;;2.97;;
33162;SDS011;29282;45.656;11.302;2023-04-24T09:51:39;13.25;;;3.22;;
33162;SDS011;29282;45.656;11.302;2023-04-24T09:54:11;20.20;;;3.13;;
33162;SDS011;29282;45.656;11.302;2023-04-24T09:56:44;15.20;;;3.40;;
33162;SDS011;29282;45.656;11.302;2023-04-24T09:59:11;10.55;;;3.10;;
33162;SDS011;29282;45.656;11.302;2023-04-24T10:01:37;21.85;;;3.42;;
33162;SDS011;29282;45.656;11.302;2023-04-24T10:04:06;14.80;;;3.25;;
33162;SDS011;29282;45.656;11.302;2023-04-24T10:06:46;9.77;;;3.20;;
33162;SDS011;29282;45.656;11.302;2023-04-24T10:09:16;19.33;;;3.35;;
33162;SDS011;29282;45.656;11.302;2023-04-24T10:11:43;21.10;;;3.10;;
33162;SDS011;29282;45.656;11.302;2023-04-24T10:14:16;11.10;;;3.47;;
33162;SDS011;29282;45.656;11.302;2023-04-24T10:16:43;11.43;;;2.97;;
33162;SDS011;29282;45.656;11.302;2023-04-24T10:19:11;15.25;;;3.85;;
33162;SDS011;29282;45.656;11.302;2023-04-24T10:21:38;18.98;;;3.90;;
33162;SDS011;29282;45.656;11.302;2023-04-24T10:24:10;23.40;;;3.70;;
33162;SDS011;29282;45.656;11.302;2023-04-24T10:26:36;11.93;;;3.53;;
33162;SDS011;29282;45.656;11.302;2023-04-24T10:29:03;16.60;;;3.60;;
33162;SDS011;29282;45.656;11.302;2023-04-24T10:31:31;16.13;;;3.88;;
33162;SDS011;29282;45.656;11.302;2023-04-24T10:33:58;16.00;;;3.13;;
33162;SDS011;29282;45.656;11.302;2023-04-24T10:36:26;23.25;;;4.63;;
33162;SDS011;29282;45.656;11.302;2023-04-24T10:38:54;21.10;;;4.10;;
33162;SDS011;29282;45.656;11.302;2023-04-24T10:41:21;13.65;;;3.03;;
33162;SDS011;29282;45.656;11.302;2023-04-24T10:46:39;15.13;;;3.47;;
33162;SDS011;29282;45.656;11.302;2023-04-24T10:49:08;13.88;;;3.13;;
33162;SDS011;29282;45.656;11.302;2023-04-24T10:51:50;11.02;;;2.92;;
33162;SDS011;29282;45.656;11.302;2023-04-24T10:56:52;14.68;;;3.22;;
33162;SDS011;29282;45.656;11.302;2023-04-24T10:59:25;16.27;;;3.40;;
33162;SDS011;29282;45.656;11.302;2023-04-24T11:01:59;17.35;;;3.55;;
33162;SDS011;29282;45.656;11.302;2023-04-24T11:04:29;30.65;;;4.03;;
33162;SDS011;29282;45.656;11.302;2023-04-24T11:06:56;21.20;;;3.40;;
33162;SDS011;29282;45.656;11.302;2023-04-24T11:09:22;16.00;;;4.10;;
33162;SDS011;29282;45.656;11.302;2023-04-24T11:11:51;9.50;;;3.05;;
33162;SDS011;29282;45.656;11.302;2023-04-24T11:14:30;15.48;;;3.80;;
33162;SDS011;29282;45.656;11.302;2023-04-24T11:17:31;14.90;;;3.45;;
33162;SDS011;29282;45.656;11.302;2023-04-24T11:20:09;14.52;;;3.72;;
33162;SDS011;29282;45.656;11.302;2023-04-24T11:22:38;20.33;;;3.42;;
33162;SDS011;29282;45.656;11.302;2023-04-24T11:25:10;17.17;;;3.95;;
33162;SDS011;29282;45.656;11.302;2023-04-24T11:27:43;14.70;;;3.35;;
33162;SDS011;29282;45.656;11.302;2023-04-24T11:30:16;14.23;;;3.80;;
33162;SDS011;29282;45.656;11.302;2023-04-24T11:32:43;16.60;;;3.38;;
33162;SDS011;29282;45.656;11.302;2023-04-24T11:37:39;11.32;;;3.58;;
33162;SDS011;29282;45.656;11.302;2023-04-24T11:40:07;11.02;;;3.00;;
33162;SDS011;29282;45.656;11.302;2023-04-24T11:42:37;8.40;;;3.00;;
33162;SDS011;29282;45.656;11.302;2023-04-24T11:45:13;16.60;;;3.22;;
33162;SDS011;29282;45.656;11.302;2023-04-24T11:47:40;16.50;;;3.30;;
33162;SDS011;29282;45.656;11.302;2023-04-24T11:50:07;10.60;;;3.17;;
33162;SDS011;29282;45.656;11.302;2023-04-24T11:52:42;14.25;;;3.30;;
33162;SDS011;29282;45.656;11.302;2023-04-24T11:57:44;11.52;;;3.58;;
33162;SDS011;29282;45.656;11.302;2023-04-24T12:00:20;9.63;;;3.08;;
33162;SDS011;29282;45.656;11.302;2023-04-24T12:02:47;17.73;;;3.85;;
33162;SDS011;29282;45.656;11.302;2023-04-24T12:05:24;17.40;;;3.63;;
33162;SDS011;29282;45.656;11.302;2023-04-24T12:07:53;10.75;;;3.13;;
33162;SDS011;29282;45.656;11.302;2023-04-24T12:10:20;12.13;;;3.25;;
33162;SDS011;29282;45.656;11.302;2023-04-24T12:12:46;14.45;;;3.58;;
33162;SDS011;29282;45.656;11.302;2023-04-24T12:15:15;10.48;;;3.35;;
33162;SDS011;29282;45.656;11.302;2023-04-24T12:17:42;12.90;;;3.00;;
33162;SDS011;29282;45.656;11.302;2023-04-24T12:20:08;9.18;;;2.80;;
33162;SDS011;29282;45.656;11.302;2023-04-24T12:22:44;11.10;;;3.10;;
33162;SDS011;29282;45.656;11.302;2023-04-24T12:25:18;11.18;;;3.53;;
33162;SDS011;29282;45.656;11.302;2023-04-24T12:27:45;7.82;;;2.55;;
33162;SDS011;29282;45.656;11.302;2023-04-24T12:30:15;7.38;;;2.97;;
33162;SDS011;29282;45.656;11.302;2023-04-24T12:32:45;10.65;;;2.75;;
33162;SDS011;29282;45.656;11.302;2023-04-24T12:35:13;10.57;;;3.20;;
33162;SDS011;29282;45.656;11.302;2023-04-24T12:37:44;13.32;;;3.33;;
33162;SDS011;29282;45.656;11.302;2023-04-24T12:40:10;8.55;;;3.05;;
33162;SDS011;29282;45.656;11.302;2023-04-24T12:45:10;15.45;;;2.78;;
33162;SDS011;29282;45.656;11.302;2023-04-24T12:47:37;8.30;;;2.78;;
33162;SDS011;29282;45.656;11.302;2023-04-24T12:50:03;8.73;;;2.67;;
33162;SDS011;29282;45.656;11.302;2023-04-24T12:52:30;6.68;;;2.67;;
33162;SDS011;29282;45.656;11.302;2023-04-24T12:54:57;8.95;;;2.70;;
33162;SDS011;29282;45.656;11.302;2023-04-24T12:57:24;5.90;;;2.67;;
33162;SDS011;29282;45.656;11.302;2023-04-24T12:59:50;6.68;;;3.03;;
33162;SDS011;29282;45.656;11.302;2023-04-24T13:02:16;8.05;;;2.88;;
33162;SDS011;29282;45.656;11.302;2023-04-24T13:04:45;8.65;;;2.67;;
33162;SDS011;29282;45.656;11.302;2023-04-24T13:07:12;4.65;;;2.42;;
33162;SDS011;29282;45.656;11.302;2023-04-24T13:09:38;9.02;;;3.25;;
33162;SDS011;29282;45.656;11.302;2023-04-24T13:12:04;8.05;;;2.75;;
33162;SDS011;29282;45.656;11.302;2023-04-24T13:14:31;6.50;;;2.90;;
33162;SDS011;29282;45.656;11.302;2023-04-24T13:16:56;8.23;;;2.50;;
33162;SDS011;29282;45.656;11.302;2023-04-24T13:19:24;6.05;;;2.88;;
33162;SDS011;29282;45.656;11.302;2023-04-24T13:21:50;6.85;;;2.67;;
33162;SDS011;29282;45.656;11.302;2023-04-24T13:24:16;8.95;;;2.65;;
33162;SDS011;29282;45.656;11.302;2023-04-24T13:26:42;4.95;;;2.60;;
33162;SDS011;29282;45.656;11.302;2023-04-24T13:29:07;9.38;;;2.80;;
33162;SDS011;29282;45.656;11.302;2023-04-24T13:31:33;8.02;;;2.60;;
33162;SDS011;29282;45.656;11.302;2023-04-24T13:33:59;11.40;;;3.25;;
33162;SDS011;29282;45.656;11.302;2023-04-24T13:36:24;12.20;;;3.08;;
33162;SDS011;29282;45.656;11.302;2023-04-24T13:38:51;6.82;;;2.50;;
33162;SDS011;29282;45.656;11.302;2023-04-24T13:41:16;8.77;;;2.60;;
33162;SDS011;29282;45.656;11.302;2023-04-24T13:43:42;9.85;;;2.67;;
33162;SDS011;29282;45.656;11.302;2023-04-24T13:46:08;8.45;;;2.60;;
33162;SDS011;29282;45.656;11.302;2023-04-24T13:48:34;7.47;;;2.70;;
33162;SDS011;29282;45.656;11.302;2023-04-24T13:50:59;8.48;;;2.40;;
33162;SDS011;29282;45.656;11.302;2023-04-24T13:53:25;6.07;;;2.30;;
33162;SDS011;29282;45.656;11.302;2023-04-24T13:55:51;6.82;;;2.53;;
33162;SDS011;29282;45.656;11.302;2023-04-24T13:58:16;6.82;;;2.35;;
33162;SDS011;29282;45.656;11.302;2023-04-24T14:00:42;8.35;;;2.47;;
33162;SDS011;29282;45.656;11.302;2023-04-24T14:03:08;6.38;;;2.58;;
33162;SDS011;29282;45.656;11.302;2023-04-24T14:05:33;4.32;;;2.33;;
33162;SDS011;29282;45.656;11.302;2023-04-24T14:07:59;6.60;;;2.65;;
33162;SDS011;29282;45.656;11.302;2023-04-24T14:10:24;8.23;;;2.88;;
33162;SDS011;29282;45.656;11.302;2023-04-24T14:12:52;9.63;;;2.75;;
33162;SDS011;29282;45.656;11.302;2023-04-24T14:15:18;3.65;;;2.13;;
33162;SDS011;29282;45.656;11.302;2023-04-24T14:17:43;11.63;;;3.00;;
33162;SDS011;29282;45.656;11.302;2023-04-24T14:20:09;7.63;;;2.45;;
33162;SDS011;29282;45.656;11.302;2023-04-24T14:22:35;8.35;;;2.55;;
33162;SDS011;29282;45.656;11.302;2023-04-24T14:25:00;6.32;;;2.50;;
33162;SDS011;29282;45.656;11.302;2023-04-24T14:27:26;5.47;;;2.20;;
33162;SDS011;29282;45.656;11.302;2023-04-24T14:29:51;6.15;;;2.20;;
33162;SDS011;29282;45.656;11.302;2023-04-24T14:32:17;5.07;;;2.63;;
33162;SDS011;29282;45.656;11.302;2023-04-24T14:34:43;4.47;;;2.42;;
33162;SDS011;29282;45.656;11.302;2023-04-24T14:37:09;6.38;;;2.20;;
33162;SDS011;29282;45.656;11.302;2023-04-24T14:39:34;7.63;;;2.72;;
33162;SDS011;29282;45.656;11.302;2023-04-24T14:42:00;3.92;;;2.10;;